createdAt,value
2018-05-12T00:01:47.049Z,77.70
2018-05-12T00:04:14.812Z,77.70
2018-05-12T00:06:42.483Z,77.70
2018-05-12T00:09:10.112Z,78.00
2018-05-12T00:11:37.780Z,78.00
2018-05-12T00:14:06.311Z,78.80
2018-05-12T00:16:34.691Z,79.20
2018-05-12T00:19:02.457Z,79.20
2018-05-12T00:21:30.119Z,78.80
2018-05-12T00:23:57.728Z,78.60
2018-05-12T00:26:25.522Z,78.80
2018-05-12T00:28:53.152Z,78.80
2018-05-12T00:31:20.764Z,79.30
2018-05-12T00:33:48.424Z,79.60
2018-05-12T00:36:16.049Z,79.50
2018-05-12T00:38:43.708Z,79.70
2018-05-12T00:41:11.490Z,79.50
2018-05-12T00:43:39.113Z,79.80
2018-05-12T00:46:07.509Z,80.00
2018-05-12T00:48:35.397Z,79.80
2018-05-12T00:51:03.024Z,80.20
2018-05-12T00:53:30.825Z,79.70
2018-05-12T00:55:58.476Z,79.80
2018-05-12T00:58:26.096Z,80.20
2018-05-12T01:00:54.600Z,80.60
2018-05-12T01:03:22.252Z,79.80
2018-05-12T01:05:50.809Z,80.30
2018-05-12T01:08:18.590Z,81.10
2018-05-12T01:10:46.234Z,80.20
2018-05-12T01:13:14.071Z,80.20
2018-05-12T01:15:41.833Z,80.50
2018-05-12T01:18:09.640Z,80.80
2018-05-12T01:20:38.183Z,82.20
2018-05-12T01:23:05.952Z,81.30
2018-05-12T01:25:33.624Z,80.90
2018-05-12T01:28:01.377Z,80.70
2018-05-12T01:30:29.002Z,80.70
2018-05-12T01:32:56.660Z,80.70
2018-05-12T01:35:25.213Z,81.00
2018-05-12T01:37:52.873Z,81.10
2018-05-12T01:40:20.534Z,80.50
2018-05-12T01:42:48.149Z,80.50
2018-05-12T01:45:15.933Z,80.90
2018-05-12T01:47:43.604Z,81.20
2018-05-12T01:50:11.360Z,81.20
2018-05-12T01:52:39.024Z,81.00
2018-05-12T01:55:06.792Z,80.90
2018-05-12T01:57:34.554Z,81.00
2018-05-12T02:00:02.317Z,81.20
2018-05-12T02:02:29.944Z,81.40
2018-05-12T02:04:57.744Z,81.40
2018-05-12T02:07:25.364Z,81.80
2018-05-12T02:09:53.763Z,82.00
2018-05-12T02:12:21.501Z,82.00
2018-05-12T02:14:49.892Z,82.20
2018-05-12T02:17:17.591Z,82.10
2018-05-12T02:19:45.459Z,81.70
2018-05-12T02:22:13.076Z,82.00
2018-05-12T02:24:40.758Z,82.00
2018-05-12T02:27:08.378Z,82.20
2018-05-12T02:29:36.146Z,81.80
2018-05-12T02:32:03.888Z,82.10
2018-05-12T02:34:31.513Z,82.60
2018-05-12T02:36:59.823Z,83.40
2018-05-12T02:39:27.601Z,83.50
2018-05-12T02:41:55.283Z,83.80
2018-05-12T02:44:23.047Z,84.00
2018-05-12T02:46:51.499Z,85.20
2018-05-12T02:49:19.147Z,85.10
2018-05-12T02:51:46.763Z,85.30
2018-05-12T02:54:16.323Z,85.20
2018-05-12T02:56:44.023Z,85.20
2018-05-12T02:59:12.446Z,85.00
2018-05-12T03:01:40.076Z,84.80
2018-05-12T03:04:08.644Z,84.60
2018-05-12T03:06:37.045Z,85.60
2018-05-12T03:09:05.600Z,84.50
2018-05-12T03:11:33.264Z,84.40
2018-05-12T03:14:00.943Z,84.30
2018-05-12T03:16:29.558Z,84.30
2018-05-12T03:18:57.165Z,84.20
2018-05-12T03:21:24.934Z,84.20
2018-05-12T03:23:52.671Z,84.40
2018-05-12T03:26:20.438Z,84.60
2018-05-12T03:28:48.116Z,84.70
2018-05-12T03:31:15.859Z,84.70
2018-05-12T03:33:43.624Z,84.20
2018-05-12T03:36:11.288Z,84.30
2018-05-12T03:38:38.931Z,84.30
2018-05-12T03:41:06.595Z,83.90
2018-05-12T03:43:34.233Z,83.80
2018-05-12T03:46:02.858Z,83.60
2018-05-12T03:48:30.624Z,83.60
2018-05-12T03:50:58.387Z,83.10
2018-05-12T03:53:26.011Z,82.10
2018-05-12T03:55:54.532Z,81.20
2018-05-12T03:58:22.136Z,81.20
2018-05-12T04:00:50.573Z,81.30
2018-05-12T04:03:18.440Z,81.20
2018-05-12T04:05:57.893Z,81.20
2018-05-12T04:08:37.418Z,81.20
2018-05-12T04:11:16.901Z,81.60
2018-05-12T04:13:44.657Z,82.30
2018-05-12T04:16:12.408Z,82.60
2018-05-12T04:18:41.580Z,83.00
2018-05-12T04:21:09.351Z,82.90
2018-05-12T04:23:37.118Z,82.70
2018-05-12T04:26:04.787Z,83.60
2018-05-12T04:28:32.550Z,83.40
2018-05-12T04:31:00.221Z,83.00
2018-05-12T04:33:27.898Z,83.00
2018-05-12T04:35:55.540Z,83.00
2018-05-12T04:38:23.156Z,84.00
2018-05-12T04:40:50.799Z,83.40
2018-05-12T04:43:19.265Z,83.50
2018-05-12T04:45:46.908Z,83.40
2018-05-12T04:48:14.526Z,83.40
2018-05-12T04:50:42.151Z,83.10
2018-05-12T04:53:09.807Z,82.70
2018-05-12T04:55:37.651Z,82.40
2018-05-12T04:58:05.864Z,82.50
2018-05-12T05:00:33.620Z,82.60
2018-05-12T05:03:01.285Z,83.40
2018-05-12T05:05:29.737Z,82.90
2018-05-12T05:07:57.527Z,82.90
2018-05-12T05:10:25.188Z,83.20
2018-05-12T05:12:52.958Z,82.90
2018-05-12T05:15:20.817Z,83.20
2018-05-12T05:17:48.584Z,83.60
2018-05-12T05:20:16.288Z,83.70
2018-05-12T05:22:44.015Z,82.80
2018-05-12T05:25:11.636Z,82.70
2018-05-12T05:27:39.410Z,82.30
2018-05-12T05:30:07.073Z,82.20
2018-05-12T05:32:34.750Z,81.90
2018-05-12T05:35:02.425Z,81.90
2018-05-12T05:37:30.162Z,82.30
2018-05-12T05:39:57.822Z,81.50
2018-05-12T05:42:25.484Z,81.10
2018-05-12T05:44:53.119Z,80.40
2018-05-12T05:47:20.775Z,79.90
2018-05-12T05:49:48.509Z,80.00
2018-05-12T05:52:16.347Z,79.70
2018-05-12T05:54:44.106Z,80.20
2018-05-12T05:57:11.926Z,79.90
2018-05-12T05:59:39.560Z,79.60
2018-05-12T06:02:07.178Z,79.60
2018-05-12T06:04:34.959Z,79.90
2018-05-12T06:07:02.867Z,80.30
2018-05-12T06:09:31.280Z,80.70
2018-05-12T06:11:58.937Z,80.20
2018-05-12T06:14:26.737Z,80.20
2018-05-12T06:16:54.355Z,80.50
2018-05-12T06:19:22.913Z,80.80
2018-05-12T06:21:50.601Z,80.10
2018-05-12T06:24:18.988Z,79.90
2018-05-12T06:26:46.654Z,79.80
2018-05-12T06:29:14.353Z,80.10
2018-05-12T06:31:42.045Z,79.70
2018-05-12T06:34:09.808Z,79.70
2018-05-12T06:36:37.543Z,79.70
2018-05-12T06:39:05.407Z,79.30
2018-05-12T06:41:33.214Z,79.60
2018-05-12T06:44:01.685Z,80.20
2018-05-12T06:46:30.955Z,79.80
2018-05-12T06:48:58.618Z,79.80
2018-05-12T06:51:26.292Z,80.30
2018-05-12T06:53:54.254Z,79.80
2018-05-12T06:56:21.944Z,78.80
2018-05-12T06:58:49.602Z,78.90
2018-05-12T07:01:17.244Z,79.20
2018-05-12T07:03:44.920Z,79.20
2018-05-12T07:06:13.410Z,78.50
2018-05-12T07:08:41.027Z,78.60
2018-05-12T07:11:08.687Z,78.30
2018-05-12T07:13:36.304Z,78.20
2018-05-12T07:16:03.953Z,78.10
2018-05-12T07:18:31.731Z,78.40
2018-05-12T07:20:59.400Z,77.60
2018-05-12T07:23:27.221Z,78.00
2018-05-12T07:25:54.877Z,78.10
2018-05-12T07:28:22.693Z,78.50
2018-05-12T07:30:51.168Z,77.60
2018-05-12T07:33:18.780Z,77.60
2018-05-12T07:35:46.392Z,77.10
2018-05-12T07:38:14.118Z,76.90
2018-05-12T07:40:41.744Z,76.40
2018-05-12T07:43:09.646Z,77.30
2018-05-12T07:45:37.299Z,76.70
2018-05-12T07:48:05.314Z,76.10
2018-05-12T07:50:32.929Z,76.50
2018-05-12T07:53:00.545Z,76.80
2018-05-12T07:55:29.117Z,76.30
2018-05-12T07:57:56.877Z,76.20
2018-05-12T08:00:24.716Z,76.20
2018-05-12T08:02:52.374Z,76.50
2018-05-12T08:05:19.995Z,77.50
2018-05-12T08:07:48.452Z,76.80
2018-05-12T08:10:17.223Z,75.20
2018-05-12T08:12:44.950Z,75.20
2018-05-12T08:15:13.377Z,74.60
2018-05-12T08:17:41.037Z,75.30
2018-05-12T08:20:08.699Z,74.90
2018-05-12T08:22:36.398Z,74.40
2018-05-12T08:25:04.060Z,74.10
2018-05-12T08:27:32.569Z,74.70
2018-05-12T08:30:00.236Z,75.50
2018-05-12T08:32:27.876Z,74.70
2018-05-12T08:34:55.538Z,74.30
2018-05-12T08:37:23.262Z,74.60
2018-05-12T08:39:50.967Z,74.60
2018-05-12T08:42:18.584Z,73.70
2018-05-12T08:44:46.241Z,73.30
2018-05-12T08:47:13.892Z,73.70
2018-05-12T08:49:41.545Z,73.20
2018-05-12T08:52:09.230Z,72.80
2018-05-12T08:54:36.926Z,73.00
2018-05-12T08:57:04.564Z,72.20
2018-05-12T08:59:32.182Z,72.10
2018-05-12T09:01:59.874Z,72.20
2018-05-12T09:04:27.536Z,72.00
2018-05-12T09:06:55.229Z,71.90
2018-05-12T09:09:23.611Z,71.80
2018-05-12T09:11:52.028Z,71.70
2018-05-12T09:14:19.735Z,71.70
2018-05-12T09:16:47.576Z,72.30
2018-05-12T09:19:16.031Z,71.50
2018-05-12T09:21:43.823Z,71.00
2018-05-12T09:24:11.602Z,70.90
2018-05-12T09:26:39.296Z,71.50
2018-05-12T09:29:06.983Z,71.70
2018-05-12T09:31:34.985Z,70.30
2018-05-12T09:34:03.449Z,70.70
2018-05-12T09:36:31.163Z,70.70
2018-05-12T09:38:59.716Z,70.00
2018-05-12T09:41:27.354Z,70.00
2018-05-12T09:43:55.068Z,69.30
2018-05-12T09:46:22.920Z,67.20
2018-05-12T09:48:50.703Z,67.90
2018-05-12T09:51:18.362Z,68.80
2018-05-12T09:53:46.031Z,69.00
2018-05-12T09:56:14.558Z,68.20
2018-05-12T09:58:42.168Z,68.10
2018-05-12T10:01:09.912Z,67.60
2018-05-12T10:03:37.776Z,68.00
2018-05-12T10:06:05.642Z,68.30
2018-05-12T10:08:33.407Z,68.60
2018-05-12T10:11:01.069Z,68.40
2018-05-12T10:13:28.764Z,67.90
2018-05-12T10:15:56.424Z,65.70
2018-05-12T10:18:24.159Z,65.60
2018-05-12T10:20:51.922Z,66.50
2018-05-12T10:23:19.629Z,66.30
2018-05-12T10:25:47.275Z,67.60
2018-05-12T10:28:15.318Z,67.50
2018-05-12T10:30:43.016Z,65.60
2018-05-12T10:33:11.493Z,64.60
2018-05-12T10:35:39.263Z,64.50
2018-05-12T10:38:06.913Z,64.30
2018-05-12T10:40:34.682Z,66.00
2018-05-12T10:43:03.277Z,63.00
2018-05-12T10:45:31.737Z,64.30
2018-05-12T10:47:59.397Z,64.30
2018-05-12T10:50:27.070Z,65.10
2018-05-12T10:52:56.053Z,62.70
2018-05-12T10:55:23.773Z,63.10
2018-05-12T10:57:51.460Z,62.70
2018-05-12T11:00:19.113Z,62.20
2018-05-12T11:02:46.729Z,62.60
2018-05-12T11:05:16.632Z,62.70
2018-05-12T11:07:46.450Z,62.80
2018-05-12T11:10:15.023Z,62.80
2018-05-12T11:12:44.530Z,62.00
2018-05-12T11:15:13.747Z,61.50
2018-05-12T11:17:41.573Z,62.80
2018-05-12T11:20:09.356Z,59.90
2018-05-12T11:22:36.971Z,59.80
2018-05-12T11:25:04.690Z,60.10
2018-05-12T11:27:32.530Z,61.40
2018-05-12T11:30:00.291Z,61.00
2018-05-12T11:32:27.981Z,61.50
2018-05-12T11:34:55.819Z,61.30
2018-05-12T11:37:23.435Z,60.20
2018-05-12T11:39:52.001Z,58.70
2018-05-12T11:42:20.456Z,60.00
2018-05-12T11:44:48.254Z,59.60
2018-05-12T11:47:16.671Z,58.70
2018-05-12T11:49:44.458Z,58.60
2018-05-12T11:52:12.155Z,59.90
2018-05-12T11:54:40.636Z,59.70
2018-05-12T11:57:09.097Z,59.80
2018-05-12T11:59:36.877Z,59.80
2018-05-12T12:02:04.653Z,57.90
2018-05-12T12:04:33.126Z,58.30
2018-05-12T12:07:02.325Z,58.30
2018-05-12T12:09:30.128Z,58.30
2018-05-12T12:11:57.755Z,58.00
2018-05-12T12:14:25.517Z,57.80
2018-05-12T12:16:53.253Z,57.30
2018-05-12T12:19:20.899Z,56.80
2018-05-12T12:21:48.606Z,55.00
2018-05-12T12:24:16.446Z,53.40
2018-05-12T12:26:44.134Z,55.30
2018-05-12T12:29:12.568Z,54.80
2018-05-12T12:31:41.274Z,55.30
2018-05-12T12:34:09.065Z,55.20
2018-05-12T12:36:36.732Z,54.10
2018-05-12T12:39:04.928Z,56.40
2018-05-12T12:41:32.636Z,56.60
2018-05-12T12:44:00.433Z,56.20
2018-05-12T12:46:28.312Z,55.10
2018-05-12T12:48:56.782Z,55.10
2018-05-12T12:51:24.447Z,55.10
2018-05-12T12:53:52.133Z,51.50
2018-05-12T12:56:20.565Z,51.00
2018-05-12T12:58:48.188Z,50.90
2018-05-12T13:01:15.883Z,50.10
2018-05-12T13:03:43.544Z,51.80
2018-05-12T13:06:11.195Z,51.10
2018-05-12T13:08:38.972Z,51.00
2018-05-12T13:11:06.737Z,50.30
2018-05-12T13:13:34.382Z,50.70
2018-05-12T13:16:02.020Z,51.40
2018-05-12T13:18:29.826Z,49.50
2018-05-12T13:20:57.439Z,51.10
2018-05-12T13:23:25.852Z,51.90
2018-05-12T13:25:53.635Z,52.60
2018-05-12T13:28:21.292Z,52.80
2018-05-12T13:30:48.901Z,52.10
2018-05-12T13:33:17.315Z,51.60
2018-05-12T13:35:44.960Z,51.60
2018-05-12T13:38:13.340Z,51.70
2018-05-12T13:40:40.992Z,51.70
2018-05-12T13:43:09.548Z,53.30
2018-05-12T13:45:37.288Z,52.60
2018-05-12T13:48:05.605Z,51.00
2018-05-12T13:50:34.048Z,51.40
2018-05-12T13:53:01.708Z,51.40
2018-05-12T13:55:29.352Z,52.30
2018-05-12T13:57:56.968Z,53.50
2018-05-12T14:00:24.705Z,52.10
2018-05-12T14:02:52.308Z,52.50
2018-05-12T14:05:20.721Z,51.20
2018-05-12T14:07:48.340Z,51.20
2018-05-12T14:10:16.807Z,52.40
2018-05-12T14:12:45.219Z,52.60
2018-05-12T14:15:13.588Z,53.70
2018-05-12T14:17:42.120Z,52.30
2018-05-12T14:20:09.884Z,52.30
2018-05-12T14:22:37.490Z,53.10
2018-05-12T14:25:05.152Z,52.70
2018-05-12T14:27:33.567Z,52.70
2018-05-12T14:30:01.181Z,52.50
2018-05-12T14:32:29.557Z,53.20
2018-05-12T14:34:57.397Z,53.20
2018-05-12T14:37:25.085Z,53.20
2018-05-12T14:39:52.733Z,54.00
2018-05-12T14:42:20.344Z,54.20
2018-05-12T14:44:48.260Z,54.20
2018-05-12T14:47:15.869Z,53.30
2018-05-12T14:49:44.336Z,53.40
2018-05-12T14:52:12.802Z,52.40
2018-05-12T14:54:40.454Z,52.40
2018-05-12T14:57:08.123Z,53.30
2018-05-12T14:59:35.735Z,53.80
2018-05-12T15:02:03.376Z,52.10
2018-05-12T15:04:32.625Z,51.90
2018-05-12T15:07:00.415Z,51.70
2018-05-12T15:09:28.809Z,51.20
2018-05-12T15:11:57.348Z,52.80
2018-05-12T15:14:25.114Z,52.20
2018-05-12T15:16:52.748Z,53.00
2018-05-12T15:19:20.391Z,52.80
2018-05-12T15:21:48.818Z,52.50
2018-05-12T15:24:16.613Z,52.50
2018-05-12T15:26:44.258Z,52.80
2018-05-12T15:29:12.012Z,52.50
2018-05-12T15:31:39.774Z,52.90
2018-05-12T15:34:07.467Z,53.40
2018-05-12T15:36:35.169Z,53.70
2018-05-12T15:39:02.784Z,52.70
2018-05-12T15:41:30.528Z,52.20
2018-05-12T15:43:58.219Z,52.70
2018-05-12T15:46:25.945Z,52.70
2018-05-12T15:48:54.752Z,53.50
2018-05-12T15:51:22.506Z,54.00
2018-05-12T15:53:50.144Z,54.20
2018-05-12T15:56:17.751Z,54.60
2018-05-12T15:58:45.425Z,54.50
2018-05-12T16:01:13.029Z,54.10
2018-05-12T16:12:00.240Z,54.60
2018-05-12T16:14:27.993Z,54.80
2018-05-12T16:16:55.672Z,55.00
2018-05-12T16:19:23.283Z,53.80
2018-05-12T16:21:50.980Z,53.70
2018-05-12T16:24:18.669Z,54.50
2018-05-12T16:26:46.323Z,55.00
2018-05-12T16:29:14.069Z,55.30
2018-05-12T16:31:42.685Z,56.00
2018-05-12T16:34:11.343Z,56.30
2018-05-12T16:36:39.061Z,56.20
2018-05-12T16:39:07.476Z,57.10
2018-05-12T16:41:35.251Z,57.10
2018-05-12T16:44:03.922Z,57.50
2018-05-12T16:46:31.733Z,58.10
2018-05-12T16:49:03.167Z,58.40
2018-05-12T16:51:32.338Z,59.70
2018-05-12T16:54:00.248Z,59.10
2018-05-12T16:56:27.901Z,59.40
2018-05-12T16:58:55.560Z,59.90
2018-05-12T17:01:23.227Z,60.20
2018-05-12T17:03:50.847Z,60.10
2018-05-12T17:06:18.837Z,60.40
2018-05-12T17:08:46.504Z,60.60
2018-05-12T17:11:14.188Z,61.10
2018-05-12T17:13:42.033Z,61.40
2018-05-12T17:16:09.667Z,61.30
2018-05-12T17:18:37.417Z,61.40
2018-05-12T17:21:05.108Z,61.90
2018-05-12T17:23:32.881Z,61.70
2018-05-12T17:26:00.752Z,61.50
2018-05-12T17:28:28.439Z,61.90
2018-05-12T17:30:56.112Z,62.00
2018-05-12T17:33:23.776Z,62.20
2018-05-12T17:35:51.405Z,63.20
2018-05-12T17:38:19.133Z,62.70
2018-05-12T17:40:46.799Z,62.50
2018-05-12T17:43:14.490Z,62.80
2018-05-12T17:45:42.104Z,62.80
2018-05-12T17:48:10.520Z,63.30
2018-05-12T17:50:38.135Z,63.20
2018-05-12T17:53:06.681Z,63.40
2018-05-12T17:55:34.415Z,63.30
2018-05-12T17:58:02.049Z,63.40
2018-05-12T18:00:30.586Z,63.30
2018-05-12T18:02:58.311Z,63.20
2018-05-12T18:05:26.728Z,62.60
2018-05-12T18:07:54.445Z,62.60
2018-05-12T18:10:23.035Z,62.10
2018-05-12T18:12:51.664Z,62.20
2018-05-12T18:15:19.462Z,62.10
2018-05-12T18:17:47.093Z,62.70
2018-05-12T18:20:14.960Z,61.80
2018-05-12T18:22:42.621Z,61.50
2018-05-12T18:25:10.267Z,61.30
2018-05-12T18:27:37.899Z,61.10
2018-05-12T18:30:06.311Z,59.80
2018-05-12T18:32:34.094Z,59.70
2018-05-12T18:35:01.788Z,60.20
2018-05-12T18:37:30.374Z,59.10
2018-05-12T18:39:58.955Z,59.30
2018-05-12T18:42:27.400Z,59.40
2018-05-12T18:44:55.165Z,59.30
2018-05-12T18:47:22.853Z,59.40
2018-05-12T18:49:52.071Z,59.80
2018-05-12T18:52:20.488Z,59.80
2018-05-12T18:54:48.188Z,59.80
2018-05-12T18:57:16.036Z,60.10
2018-05-12T18:59:43.712Z,60.20
2018-05-12T19:02:11.358Z,60.30
2018-05-12T19:04:39.004Z,60.50
2018-05-12T19:07:06.716Z,60.70
2018-05-12T19:09:35.148Z,62.30
2018-05-12T19:12:02.937Z,62.30
2018-05-12T19:14:30.601Z,61.10
2018-05-12T19:16:58.362Z,61.20
2018-05-12T19:19:27.455Z,61.50
2018-05-12T19:21:57.181Z,61.80
2018-05-12T19:24:27.087Z,61.80
2018-05-12T19:26:55.559Z,62.70
2018-05-12T19:29:23.170Z,62.70
2018-05-12T19:31:50.993Z,63.20
2018-05-12T19:34:19.608Z,63.60
2018-05-12T19:36:47.440Z,64.20
2018-05-12T19:39:15.175Z,66.00
2018-05-12T19:41:42.801Z,65.80
2018-05-12T19:44:11.269Z,66.60
2018-05-12T19:46:39.706Z,66.90
2018-05-12T19:49:07.403Z,66.90
2018-05-12T19:51:35.031Z,67.60
2018-05-12T19:54:03.451Z,68.00
2018-05-12T19:56:31.124Z,68.00
2018-05-12T19:58:58.785Z,68.50
2018-05-12T20:01:26.400Z,68.80
2018-05-12T20:03:55.063Z,68.80
2018-05-12T20:06:22.664Z,68.90
2018-05-12T20:08:50.435Z,69.10
2018-05-12T20:11:19.042Z,69.50
2018-05-12T20:13:47.490Z,69.70
2018-05-12T20:16:15.625Z,69.90
2018-05-12T20:18:44.907Z,70.30
2018-05-12T20:21:13.352Z,70.30
2018-05-12T20:23:41.674Z,70.30
2018-05-12T20:26:10.256Z,70.50
2018-05-12T20:28:40.203Z,70.90
2018-05-12T20:31:08.486Z,70.70
2018-05-12T20:33:37.025Z,71.00
2018-05-12T20:36:05.468Z,71.30
2018-05-12T20:41:08.050Z,71.30
2018-05-12T20:43:35.911Z,71.50
2018-05-12T20:46:04.337Z,71.40
2018-05-12T20:48:32.601Z,71.70
2018-05-12T20:51:00.971Z,71.80
2018-05-12T20:53:28.817Z,71.90
2018-05-12T20:55:56.449Z,72.00
2018-05-12T20:58:25.307Z,72.20
2018-05-12T21:00:53.724Z,72.30
2018-05-12T21:03:22.364Z,72.30
2018-05-12T21:05:50.889Z,72.30
2018-05-12T21:08:19.290Z,72.80
2018-05-12T21:10:47.012Z,72.60
2018-05-12T21:13:16.827Z,73.00
2018-05-12T21:15:45.410Z,73.60
2018-05-12T21:18:13.093Z,72.90
2018-05-12T21:20:41.562Z,73.50
2018-05-12T21:23:10.758Z,73.60
2018-05-12T21:25:38.432Z,73.40
2018-05-12T21:28:06.074Z,73.50
2018-05-12T21:30:33.806Z,73.50
2018-05-12T21:33:01.626Z,73.50
2018-05-12T21:35:29.494Z,73.70
2018-05-12T21:37:57.927Z,74.10
2018-05-12T21:40:25.713Z,74.10
2018-05-12T21:42:54.299Z,74.40
2018-05-12T21:45:22.159Z,74.40
2018-05-12T21:47:49.843Z,74.30
2018-05-12T21:50:18.271Z,75.00
2018-05-12T21:52:45.892Z,74.50
2018-05-12T21:55:13.715Z,74.50
2018-05-12T21:57:41.367Z,74.70
2018-05-12T22:00:09.805Z,74.70
2018-05-12T22:02:38.433Z,75.20
2018-05-12T22:05:06.679Z,75.20
2018-05-12T22:07:34.390Z,75.00
2018-05-12T22:10:02.170Z,75.20
2018-05-12T22:12:29.785Z,75.30
2018-05-12T22:14:57.472Z,75.30
2018-05-12T22:17:25.108Z,75.50
2018-05-12T22:19:52.760Z,75.70
2018-05-12T22:22:20.371Z,75.80
2018-05-12T22:24:48.111Z,76.00
2018-05-12T22:27:15.921Z,76.10
2018-05-12T22:29:44.304Z,76.60
2018-05-12T22:32:13.558Z,76.70
2018-05-12T22:34:41.172Z,76.70
2018-05-12T22:37:09.603Z,76.80
2018-05-12T22:39:37.365Z,76.70
2018-05-12T22:42:05.047Z,76.80
2018-05-12T22:44:32.718Z,76.90
2018-05-12T22:47:02.091Z,77.30
2018-05-12T22:49:29.739Z,77.20
2018-05-12T22:51:57.535Z,77.50
2018-05-12T22:54:25.191Z,77.60
2018-05-12T22:56:52.873Z,77.80
2018-05-12T22:59:20.631Z,77.70
2018-05-12T23:01:48.475Z,77.80
2018-05-12T23:04:16.269Z,78.10
2018-05-12T23:06:44.049Z,78.30
2018-05-12T23:09:12.501Z,78.10
2018-05-12T23:11:40.366Z,78.20
2018-05-12T23:14:08.220Z,78.20
2018-05-12T23:16:35.984Z,78.70
2018-05-12T23:19:03.752Z,78.50
2018-05-12T23:24:05.404Z,79.20
2018-05-12T23:26:33.191Z,79.30
2018-05-12T23:29:00.824Z,79.70
2018-05-12T23:31:28.616Z,79.70
2018-05-12T23:33:56.306Z,79.80
2018-05-12T23:36:23.965Z,80.20
2018-05-12T23:38:51.627Z,80.30
2018-05-12T23:41:19.405Z,80.30
2018-05-12T23:43:47.028Z,80.30
2018-05-12T23:46:14.629Z,80.30
2018-05-12T23:48:42.355Z,80.20
2018-05-12T23:51:10.042Z,79.40
2018-05-12T23:53:37.662Z,80.50
2018-05-12T23:56:05.336Z,80.60
2018-05-12T23:58:33.035Z,80.70
